CheckWX is a tool to help pilots better visualize weather data.  It is not intended as a substitute for an official pre-flight weather briefing.

04:52:47 UTC

HTKA METAR
Kigoma Airport
Kigoma, Tanzania
Current

19 hours ago

HTKA 161000Z 08011KT 9999 FEW025 FEW026CB 29/12 Q1021
Observed
Jun-16 @ 10:00 UTC
Wind
  • 080° at 11 KTS
Visibility
10,000+ meters
Flight Rules
VFR
Cloud Levels
  • Few at 2,500' AGL
  • Few at 2,600' AGL
Temperature
29°C / 84°F
Dewpoint
12°C / 54°F
Humidity
35%
Altimeter
30.15" Hg
Pressure
1020.92 hPa